Terminal Aerodrome Forecast
Issued by NWS

Home | Current Version | Previous Version | Text Only | Print | Product List | Glossary On
Versions: 1 2 3 4 5 6 7 8 9 10 11 12 13 14 15 16 17 18 19
000
FTUS46 KSEW 281900 AAA
TAFBFI
TAF AMD
KBFI 281902Z 2819/2918 02003KT P6SM SCT018 OVC040
     FM282100 34004KT P6SM BKN045
     FM290000 35004KT P6SM SCT050 BKN100
     FM290400 00000KT P6SM OVC050=

USA.gov is the U.S. government's official web portal to all federal, state and local government web resources and services.